Time;durP1;ratioP1;P1;durP2;ratioP2;P2;SDS_P1;SDS_P2;PMS_P1;PMS_P2;Temp;Humidity;BMP_temperature;BMP_pressure;BME280_temperature;BME280_humidity;BME280_pressure;Samples;Min_cycle;Max_cycle;Signal;HPM_P1;HPM_P2
2021/08/12 00:01:02;;;;;;;4.50;3.10;;;;;;;30.17;43.28;100960.11;128025;1087;64271;-86
2021/08/12 00:03:28;;;;;;;4.93;3.00;;;;;;;30.17;43.31;100962.00;127993;1087;64134;-85
2021/08/12 00:05:54;;;;;;;4.67;3.37;;;;;;;30.17;43.34;100965.56;128013;1087;64269;-85
2021/08/12 00:08:20;;;;;;;6.80;3.50;;;;;;;30.17;43.32;100964.72;128375;1087;64134;-85
2021/08/12 00:10:50;;;;;;;4.80;3.20;;;;;;;30.16;43.68;100963.84;128335;1087;64259;-87
2021/08/12 00:13:20;;;;;;;5.33;3.27;;;;;;;30.16;43.36;100963.84;128035;1087;64111;-86
2021/08/12 00:15:47;;;;;;;5.53;3.20;;;;;;;30.16;43.34;100963.84;128366;1087;64339;-86
2021/08/12 00:18:15;;;;;;;4.67;3.20;;;;;;;30.16;43.32;100963.84;128350;1087;64145;-86
2021/08/12 00:20:42;;;;;;;4.83;3.03;;;;;;;30.14;43.49;100965.90;128361;1086;64121;-85
2021/08/12 00:23:08;;;;;;;4.53;3.23;;;;;;;30.13;43.47;100964.19;128005;1087;64267;-86
2021/08/12 00:25:35;;;;;;;4.57;3.03;;;;;;;30.14;43.67;100965.03;127992;1087;64099;-85
2021/08/12 00:28:04;;;;;;;4.30;3.13;;;;;;;30.15;43.86;100970.30;128028;1087;64215;-86
2021/08/12 00:30:30;;;;;;;4.67;3.47;;;;;;;30.14;43.48;100965.90;128011;1086;64096;-85
2021/08/12 00:32:56;;;;;;;4.63;3.40;;;;;;;30.15;43.64;100973.02;128451;1084;64301;-87
2021/08/12 00:35:23;;;;;;;4.00;3.20;;;;;;;30.13;43.44;100964.19;128447;1084;64287;-85
2021/08/12 00:37:49;;;;;;;4.37;3.10;;;;;;;30.15;43.62;100966.74;128525;1084;64172;-86
2021/08/12 00:40:16;;;;;;;4.60;3.40;;;;;;;30.13;43.64;100964.19;128503;1084;64266;-87
2021/08/12 00:42:43;;;;;;;4.23;3.10;;;;;;;30.13;43.62;100969.63;128507;1084;64128;-86
2021/08/12 00:45:09;;;;;;;3.93;2.87;;;;;;;30.14;43.69;100978.64;128493;1083;64095;-86
2021/08/12 00:47:44;;;;;;;4.37;3.30;;;;;;;30.12;43.51;100977.97;128517;1084;64128;-85
2021/08/12 00:50:11;;;;;;;4.47;3.30;;;;;;;30.12;44.08;100967.92;128506;1084;64242;-86
2021/08/12 00:52:37;;;;;;;4.77;3.07;;;;;;;30.13;43.93;100974.20;128899;1084;64128;-85
2021/08/12 00:55:05;;;;;;;4.20;3.25;;;;;;;30.13;43.73;100971.48;128464;1084;64156;-86
2021/08/12 00:57:31;;;;;;;4.90;3.30;;;;;;;30.12;43.72;100973.37;128501;1084;64083;-85
2021/08/12 01:00:02;;;;;;;4.53;3.37;;;;;;;30.13;43.70;100974.20;128478;1084;64128;-85
2021/08/12 01:02:28;;;;;;;4.13;3.00;;;;;;;30.12;44.07;100973.37;128905;1082;64069;-85
2021/08/12 01:04:57;;;;;;;4.23;3.10;;;;;;;30.11;43.88;100985.27;128886;1084;64294;-86
2021/08/12 01:07:45;;;;;;;4.23;3.10;;;;;;;30.12;44.08;100983.42;128535;1082;64205;-86
2021/08/12 01:10:43;;;;;;;4.50;3.13;;;;;;;30.12;44.07;100980.70;128491;1084;64204;-85
2021/08/12 01:13:21;;;;;;;5.27;3.27;;;;;;;30.09;44.08;100974.55;128875;1084;64307;-86
2021/08/12 01:15:52;;;;;;;5.13;2.90;;;;;;;30.11;44.14;100984.42;128478;1084;64316;-86
2021/08/12 01:18:46;;;;;;;4.37;3.10;;;;;;;30.10;43.78;100980.86;128560;1084;64201;-86
2021/08/12 01:21:31;;;;;;;4.20;3.00;;;;;;;30.10;43.76;100983.59;128905;1084;64101;-86
2021/08/12 01:24:03;;;;;;;4.20;3.27;;;;;;;30.09;44.10;100985.44;128910;1084;64206;-86
2021/08/12 01:26:30;;;;;;;4.50;3.33;;;;;;;30.10;43.68;100980.86;128563;1084;64144;-85
2021/08/12 01:28:56;;;;;;;4.37;3.10;;;;;;;30.10;44.16;100975.42;128496;1084;64230;-85
2021/08/12 01:31:48;;;;;;;5.30;3.27;;;;;;;30.09;44.19;100965.54;128483;1084;64140;-86
2021/08/12 01:34:29;;;;;;;5.07;3.40;;;;;;;30.09;44.14;100966.38;128482;1082;64227;-86
2021/08/12 01:36:56;;;;;;;4.67;3.20;;;;;;;30.08;44.15;100958.38;128925;1084;64719;-86
2021/08/12 01:39:22;;;;;;;4.10;3.00;;;;;;;30.08;43.97;100961.95;128524;1084;64138;-85
2021/08/12 01:41:49;;;;;;;4.57;3.20;;;;;;;30.08;43.79;100959.23;128495;1083;64129;-86
2021/08/12 01:44:17;;;;;;;4.27;3.10;;;;;;;30.08;44.20;100953.78;128483;1084;64194;-86
2021/08/12 01:46:52;;;;;;;4.30;3.10;;;;;;;30.08;44.24;100944.77;128527;1084;64391;-86
2021/08/12 01:49:19;;;;;;;4.13;3.03;;;;;;;30.07;43.65;100946.66;128486;1082;64128;-86
2021/08/12 01:51:45;;;;;;;4.20;3.17;;;;;;;30.08;44.22;100955.66;128497;1084;64128;-86
2021/08/12 01:54:12;;;;;;;4.07;3.17;;;;;;;30.08;43.77;100947.50;128474;1084;64179;-85
2021/08/12 01:56:39;;;;;;;4.43;2.80;;;;;;;30.08;43.82;100939.33;128905;1084;64134;-86
2021/08/12 01:59:05;;;;;;;4.40;3.37;;;;;;;30.07;43.95;100949.38;128510;1084;64133;-86
2021/08/12 02:01:32;;;;;;;4.30;3.10;;;;;;;30.08;44.15;100951.06;128462;1084;64317;-86
2021/08/12 02:03:58;;;;;;;4.23;3.03;;;;;;;30.07;44.26;100956.67;128493;1084;64175;-86
2021/08/12 02:06:24;;;;;;;5.03;3.20;;;;;;;30.07;44.20;100957.55;128546;1083;64275;-87
2021/08/12 02:08:51;;;;;;;4.20;3.03;;;;;;;30.07;44.02;100970.28;128503;1082;64163;-86
2021/08/12 02:11:17;;;;;;;5.43;3.30;;;;;;;30.07;44.20;100967.56;128493;1083;64124;-86
2021/08/12 02:13:45;;;;;;;4.03;2.97;;;;;;;30.07;43.96;100967.56;128479;1082;64294;-86
2021/08/12 02:16:11;;;;;;;5.13;3.30;;;;;;;30.07;44.31;100973.88;128506;1084;63939;-86
2021/08/12 02:18:42;;;;;;;4.60;3.00;;;;;;;30.07;44.17;100978.45;128501;1084;64304;-86
2021/08/12 02:21:17;;;;;;;4.83;3.10;;;;;;;30.07;44.32;100978.45;128504;1084;64201;-86
2021/08/12 02:23:54;;;;;;;4.40;3.10;;;;;;;30.08;44.21;100980.16;128515;1084;64128;-85
2021/08/12 02:26:20;;;;;;;6.33;3.00;;;;;;;30.06;43.83;100977.61;128908;1084;64118;-86
2021/08/12 02:28:47;;;;;;;5.13;3.20;;;;;;;30.06;44.09;100977.61;128482;1084;64029;-86
2021/08/12 02:31:19;;;;;;;4.10;3.00;;;;;;;30.07;44.27;100978.45;128454;1084;63968;-85
2021/08/12 02:33:46;;;;;;;4.60;2.97;;;;;;;30.06;44.37;100980.33;128510;1084;64135;-86
2021/08/12 02:36:16;;;;;;;4.10;2.87;;;;;;;30.05;44.45;100978.63;128482;1084;64128;-85
2021/08/12 02:38:42;;;;;;;4.37;3.20;;;;;;;30.06;44.02;100982.19;128475;1084;64131;-85
2021/08/12 02:41:11;;;;;;;4.83;3.00;;;;;;;30.05;44.32;100984.06;128497;1084;64258;-86
2021/08/12 02:43:39;;;;;;;5.60;3.20;;;;;;;30.06;44.21;100987.63;128469;1084;64204;-86
2021/08/12 02:46:05;;;;;;;3.83;2.70;;;;;;;30.05;44.36;100994.11;128513;1084;64588;-86
2021/08/12 02:48:32;;;;;;;4.77;3.10;;;;;;;30.05;44.17;100992.23;128511;1082;64278;-86
2021/08/12 02:50:58;;;;;;;4.20;3.10;;;;;;;30.05;43.90;100994.11;128492;1084;64148;-85
2021/08/12 02:53:27;;;;;;;4.20;3.20;;;;;;;30.05;43.90;100996.84;128503;1083;64240;-86
2021/08/12 02:55:54;;;;;;;4.80;3.10;;;;;;;30.05;44.30;101003.12;128535;1083;64051;-85
2021/08/12 02:58:23;;;;;;;4.07;2.93;;;;;;;30.05;44.10;101005.00;128516;1082;64200;-85
2021/08/12 03:00:52;;;;;;;4.47;3.10;;;;;;;30.04;43.83;100998.69;128519;1084;64152;-85
2021/08/12 03:03:19;;;;;;;5.40;3.00;;;;;;;30.04;44.37;101006.01;128454;1084;64141;-86
2021/08/12 03:05:47;;;;;;;4.67;3.07;;;;;;;30.04;44.23;101006.85;128493;1084;64291;-86
2021/08/12 03:08:16;;;;;;;5.10;3.47;;;;;;;30.04;43.88;101020.46;128514;1082;64233;-86
2021/08/12 03:10:43;;;;;;;4.13;3.07;;;;;;;30.04;44.33;101019.63;128503;1084;64278;-86
2021/08/12 03:13:09;;;;;;;4.77;3.00;;;;;;;30.04;44.26;101011.45;128500;1084;64207;-86
2021/08/12 03:15:35;;;;;;;4.80;3.10;;;;;;;30.04;44.20;101016.90;128529;1083;64150;-87
2021/08/12 03:18:03;;;;;;;5.37;3.20;;;;;;;30.03;44.37;101026.08;128553;1084;64217;-86
2021/08/12 03:20:29;;;;;;;5.53;3.30;;;;;;;30.04;44.42;101027.78;128496;1084;64141;-86
2021/08/12 03:22:56;;;;;;;4.13;3.03;;;;;;;30.04;43.93;101022.34;128470;1082;64127;-85
2021/08/12 03:25:23;;;;;;;4.00;3.23;;;;;;;30.04;44.36;101019.63;128519;1082;64131;-85
2021/08/12 03:27:50;;;;;;;4.47;3.20;;;;;;;30.03;44.45;101026.95;128549;1084;64150;-85
2021/08/12 03:30:16;;;;;;;5.13;2.83;;;;;;;30.04;44.32;101035.95;128522;1084;64208;-86
2021/08/12 03:32:42;;;;;;;5.40;2.93;;;;;;;30.03;44.45;101029.67;128514;1084;64190;-86
2021/08/12 03:35:09;;;;;;;5.67;3.10;;;;;;;30.04;43.98;101022.34;128494;1084;64313;-85
2021/08/12 03:37:36;;;;;;;4.63;3.30;;;;;;;30.04;44.41;101030.51;128573;1084;64173;-85
2021/08/12 03:40:04;;;;;;;5.70;3.10;;;;;;;30.04;44.08;101039.52;128594;1082;64136;-85
2021/08/12 03:42:30;;;;;;;5.08;3.40;;;;;;;30.03;43.97;101035.11;128589;1084;64175;-86
2021/08/12 03:44:57;;;;;;;3.97;2.90;;;;;;;30.04;44.16;101033.23;128567;1084;64584;-85
2021/08/12 03:47:23;;;;;;;5.33;3.37;;;;;;;30.04;44.33;101044.95;128628;1083;64202;-85
2021/08/12 03:49:49;;;;;;;4.67;3.30;;;;;;;30.04;44.48;101039.52;128767;1083;64147;-85
2021/08/12 03:52:15;;;;;;;5.07;3.03;;;;;;;30.05;44.08;101038.51;128661;1084;64199;-85
2021/08/12 03:54:43;;;;;;;4.37;3.10;;;;;;;30.06;44.42;101042.06;128499;1083;64127;-86
2021/08/12 03:57:09;;;;;;;4.37;3.10;;;;;;;30.06;44.07;101048.38;128520;1084;64227;-83
2021/08/12 03:59:36;;;;;;;4.33;3.25;;;;;;;30.06;44.40;101045.66;128500;1084;64671;-86
2021/08/12 04:02:02;;;;;;;3.83;2.80;;;;;;;30.06;44.50;101051.11;128898;1084;64281;-86
2021/08/12 04:04:28;;;;;;;4.33;3.03;;;;;;;30.07;44.44;101043.78;128504;1084;64336;-86
2021/08/12 04:06:54;;;;;;;4.70;3.20;;;;;;;30.06;44.07;101037.50;128491;1084;64294;-85
2021/08/12 04:09:21;;;;;;;4.87;2.83;;;;;;;30.07;44.37;101043.78;128485;1084;64137;-85
2021/08/12 04:11:47;;;;;;;4.17;3.10;;;;;;;30.06;43.83;101039.34;128523;1084;64149;-86
2021/08/12 04:14:13;;;;;;;4.30;2.87;;;;;;;30.06;44.55;101042.06;128491;1084;64229;-87
2021/08/12 04:16:41;;;;;;;4.23;3.20;;;;;;;30.06;44.00;101047.52;128455;1084;64144;-85
2021/08/12 04:19:09;;;;;;;4.07;3.00;;;;;;;30.05;44.19;101049.39;128510;1084;64154;-86
2021/08/12 04:21:37;;;;;;;4.33;3.00;;;;;;;30.05;44.51;101052.12;128509;1083;64089;-86
2021/08/12 04:24:04;;;;;;;5.30;3.20;;;;;;;30.05;44.13;101048.55;128891;1084;64282;-85
2021/08/12 04:26:30;;;;;;;5.55;3.15;;;;;;;30.05;44.40;101051.27;128450;1084;64173;-85
2021/08/12 04:28:56;;;;;;;3.77;2.80;;;;;;;30.05;44.55;101051.27;128359;1084;65337;-85
2021/08/12 04:31:22;;;;;;;5.10;3.43;;;;;;;30.05;44.30;101056.72;128441;1084;64249;-86
2021/08/12 04:33:50;;;;;;;5.10;3.50;;;;;;;30.05;44.39;101060.28;128372;1084;64149;-86
2021/08/12 04:36:16;;;;;;;4.00;3.00;;;;;;;30.06;44.42;101058.40;128668;1084;64117;-83
2021/08/12 04:38:43;;;;;;;4.13;2.90;;;;;;;30.06;44.02;101059.27;128327;1084;64306;-83
2021/08/12 04:41:09;;;;;;;5.60;3.27;;;;;;;30.06;44.30;101061.13;128292;1084;64128;-83
2021/08/12 04:43:35;;;;;;;4.17;3.00;;;;;;;30.07;44.55;101062.84;128293;1084;64137;-83
2021/08/12 04:46:02;;;;;;;4.57;3.37;;;;;;;30.06;44.46;101064.72;128399;1083;64137;-84
2021/08/12 04:48:28;;;;;;;4.40;3.03;;;;;;;30.07;44.15;101071.88;128382;1084;64262;-84
2021/08/12 04:50:55;;;;;;;4.40;3.07;;;;;;;30.08;44.45;101076.28;128496;1084;64303;-86
2021/08/12 04:53:21;;;;;;;4.33;3.30;;;;;;;30.08;44.12;101069.99;128479;1084;64131;-86
2021/08/12 04:55:47;;;;;;;4.40;3.20;;;;;;;30.08;44.13;101079.00;128472;1084;64307;-85
2021/08/12 04:58:15;;;;;;;5.23;3.30;;;;;;;30.07;44.50;101077.31;128521;1083;64152;-86
2021/08/12 05:01:04;;;;;;;4.27;3.20;;;;;;;30.08;44.02;101081.72;128446;1084;64368;-86
2021/08/12 05:03:30;;;;;;;4.83;3.40;;;;;;;30.08;44.01;101086.33;128007;1085;64150;-86
2021/08/12 05:06:03;;;;;;;6.83;3.30;;;;;;;30.07;43.95;101090.93;128382;1087;64073;-85
2021/08/12 05:08:31;;;;;;;6.47;3.73;;;;;;;30.07;44.29;101092.78;127966;1087;64171;-84
2021/08/12 05:10:57;;;;;;;4.87;3.23;;;;;;;30.07;43.71;101081.89;127861;1087;64134;-84
2021/08/12 05:13:25;;;;;;;4.40;3.30;;;;;;;30.07;43.60;101084.61;127943;1087;64136;-85
2021/08/12 05:15:51;;;;;;;5.60;3.37;;;;;;;30.07;43.96;101081.89;127976;1087;64131;-85
2021/08/12 05:18:17;;;;;;;6.43;3.50;;;;;;;30.06;43.67;101083.77;128034;1085;64176;-87
2021/08/12 05:20:44;;;;;;;5.63;3.43;;;;;;;30.06;43.38;101097.38;127951;1086;64291;-86
2021/08/12 05:23:11;;;;;;;5.50;3.70;;;;;;;30.06;43.50;101099.23;127977;1085;64371;-86
2021/08/12 05:25:43;;;;;;;6.80;3.57;;;;;;;30.07;43.75;101096.38;128022;1086;64108;-85
2021/08/12 05:28:11;;;;;;;5.67;3.50;;;;;;;30.06;43.71;101096.51;128064;1087;64144;-85
2021/08/12 05:30:38;;;;;;;5.53;3.83;;;;;;;30.06;43.07;101101.95;128038;1086;64137;-85
2021/08/12 05:33:05;;;;;;;5.83;3.60;;;;;;;30.05;43.17;101097.55;128025;1087;64182;-85
2021/08/12 05:35:31;;;;;;;6.80;3.73;;;;;;;30.06;43.01;101108.27;128363;1087;64285;-85
2021/08/12 05:37:57;;;;;;;5.27;4.00;;;;;;;30.06;43.22;101112.84;127952;1085;64140;-86
2021/08/12 05:40:24;;;;;;;7.27;3.77;;;;;;;30.05;42.79;101111.16;128086;1084;64108;-85
2021/08/12 05:42:50;;;;;;;8.97;4.50;;;;;;;30.04;43.04;101115.73;128484;1084;64166;-85
2021/08/12 05:45:16;;;;;;;9.87;4.40;;;;;;;30.04;42.32;101125.78;128481;1084;64069;-85
2021/08/12 05:47:43;;;;;;;8.23;4.30;;;;;;;30.04;42.68;101118.45;128476;1084;64141;-85
2021/08/12 05:50:09;;;;;;;8.10;4.10;;;;;;;30.04;42.12;101118.45;128725;1084;64423;-86
2021/08/12 05:52:37;;;;;;;10.83;4.40;;;;;;;30.04;41.80;101123.05;128903;1084;64670;-85
2021/08/12 05:55:05;;;;;;;6.90;4.03;;;;;;;30.03;41.99;101121.34;128920;1083;64269;-86
2021/08/12 05:57:31;;;;;;;7.60;4.23;;;;;;;30.03;41.64;101124.94;128484;1083;64144;-85
2021/08/12 05:59:57;;;;;;;5.83;3.93;;;;;;;30.04;41.66;101125.78;128346;1082;64211;-85
2021/08/12 06:02:26;;;;;;;6.50;4.33;;;;;;;30.03;41.91;101124.94;128448;1084;64098;-86
2021/08/12 06:04:52;;;;;;;7.30;4.40;;;;;;;30.03;41.48;101124.06;128440;1084;64111;-84
2021/08/12 06:07:19;;;;;;;7.03;3.97;;;;;;;30.03;41.74;101121.34;128482;1082;61917;-85
2021/08/12 06:09:45;;;;;;;8.57;3.87;;;;;;;30.04;41.55;101128.50;128428;1084;64172;-85
2021/08/12 06:12:11;;;;;;;4.60;3.60;;;;;;;30.04;41.49;101125.78;128294;1082;64284;-86
2021/08/12 06:14:39;;;;;;;6.60;4.27;;;;;;;30.04;41.61;101121.17;128467;1082;64128;-85
2021/08/12 06:17:06;;;;;;;9.70;3.83;;;;;;;30.05;41.43;101124.77;128451;1082;64134;-85
2021/08/12 06:19:32;;;;;;;7.63;4.20;;;;;;;30.06;41.54;101129.17;128435;1082;64601;-86
2021/08/12 06:21:58;;;;;;;6.30;3.87;;;;;;;30.06;41.29;101127.33;128431;1084;64131;-85
2021/08/12 06:24:25;;;;;;;6.43;3.90;;;;;;;30.08;41.33;101130.72;128889;1084;64221;-86
2021/08/12 06:26:51;;;;;;;7.37;4.10;;;;;;;30.08;41.02;101136.17;128423;1084;64202;-86
2021/08/12 06:29:18;;;;;;;6.40;3.80;;;;;;;30.09;41.34;101134.32;128494;1083;64153;-85
2021/08/12 06:31:44;;;;;;;7.70;4.10;;;;;;;30.09;40.88;101143.33;128494;1084;64131;-85
2021/08/12 06:34:10;;;;;;;6.10;3.93;;;;;;;30.11;41.29;101142.32;128326;1084;64284;-85
2021/08/12 06:36:37;;;;;;;7.07;4.20;;;;;;;30.12;41.27;101144.88;128876;1082;64157;-85
2021/08/12 06:39:03;;;;;;;7.03;4.10;;;;;;;30.12;41.26;101147.59;128470;1084;64183;-85
2021/08/12 06:41:29;;;;;;;4.93;3.67;;;;;;;30.12;41.15;101150.32;128483;1084;64253;-85
2021/08/12 06:43:58;;;;;;;6.73;4.00;;;;;;;30.14;41.12;101142.86;128453;1083;64930;-85
2021/08/12 06:46:26;;;;;;;6.37;4.13;;;;;;;30.13;41.11;101149.31;128507;1084;64208;-85
2021/08/12 06:48:52;;;;;;;6.20;4.40;;;;;;;30.13;40.52;101143.87;128451;1083;64153;-86
2021/08/12 06:51:18;;;;;;;9.80;4.00;;;;;;;30.13;40.67;101134.83;128426;1084;64163;-85
2021/08/12 06:53:45;;;;;;;6.50;4.00;;;;;;;30.14;40.39;101141.98;128486;1084;64151;-86
2021/08/12 06:56:11;;;;;;;7.40;4.10;;;;;;;30.14;40.66;101140.14;128498;1082;64201;-85
2021/08/12 06:58:38;;;;;;;5.80;3.90;;;;;;;30.15;40.62;101141.82;128877;1084;64063;-85
2021/08/12 07:01:04;;;;;;;6.57;3.87;;;;;;;30.13;40.39;101143.87;128513;1084;64313;-86
2021/08/12 07:03:31;;;;;;;9.10;4.00;;;;;;;30.15;39.89;101136.38;128516;1083;64199;-85
2021/08/12 07:05:57;;;;;;;6.57;4.10;;;;;;;30.16;40.16;101146.25;128831;1084;64151;-84
2021/08/12 07:08:23;;;;;;;6.63;4.20;;;;;;;30.16;40.28;101143.53;128326;1083;64356;-85
2021/08/12 07:10:50;;;;;;;7.23;4.40;;;;;;;30.17;40.47;101138.96;128419;1083;64121;-86
2021/08/12 07:13:17;;;;;;;7.10;4.10;;;;;;;30.17;40.48;101141.69;128359;1082;64131;-83
2021/08/12 07:15:46;;;;;;;7.50;4.07;;;;;;;30.17;40.27;101139.80;128276;1084;64149;-83
2021/08/12 07:18:12;;;;;;;6.03;4.23;;;;;;;30.18;40.13;101136.07;128232;1083;64741;-83
2021/08/12 07:20:40;;;;;;;7.57;4.00;;;;;;;30.18;40.21;101141.52;128265;1082;64148;-83
2021/08/12 07:23:07;;;;;;;7.13;3.90;;;;;;;30.19;40.20;101145.08;128311;1084;64085;-84
2021/08/12 07:25:33;;;;;;;7.97;4.20;;;;;;;30.20;39.67;101134.02;128499;1082;64128;-85
2021/08/12 07:28:00;;;;;;;7.77;4.00;;;;;;;30.21;39.96;101137.62;128432;1082;64090;-86
2021/08/12 07:30:27;;;;;;;7.27;4.03;;;;;;;30.20;39.61;101130.45;128440;1084;64151;-86
2021/08/12 07:32:53;;;;;;;6.03;4.20;;;;;;;30.21;40.12;101143.06;128406;1084;64107;-85
2021/08/12 07:35:21;;;;;;;5.97;4.07;;;;;;;30.21;39.72;101143.91;128493;1084;64135;-85
2021/08/12 07:37:47;;;;;;;9.27;4.50;;;;;;;30.21;39.52;101146.63;128431;1084;64134;-85
2021/08/12 07:40:14;;;;;;;8.43;4.30;;;;;;;30.21;39.60;101151.23;128466;1084;64285;-85
2021/08/12 07:42:40;;;;;;;6.93;4.37;;;;;;;30.22;39.57;101155.64;128460;1084;64176;-85
2021/08/12 07:45:08;;;;;;;5.50;4.13;;;;;;;30.21;39.85;101146.63;128469;1084;64233;-85
2021/08/12 07:47:34;;;;;;;6.97;3.93;;;;;;;30.22;39.35;101144.75;128505;1084;64114;-84
2021/08/12 07:50:00;;;;;;;5.53;4.33;;;;;;;30.22;39.47;101147.47;128463;1083;64413;-84
2021/08/12 07:52:28;;;;;;;8.50;4.17;;;;;;;30.22;39.82;101150.19;128982;1084;64193;-83
2021/08/12 07:54:54;;;;;;;6.07;4.27;;;;;;;30.22;39.77;101156.51;128595;1084;64206;-85
2021/08/12 07:57:20;;;;;;;7.13;4.60;;;;;;;30.23;39.69;101154.63;128496;1083;64173;-84
2021/08/12 07:59:46;;;;;;;7.83;4.47;;;;;;;30.24;39.25;101156.34;128617;1084;64594;-84
2021/08/12 08:02:13;;;;;;;7.07;4.50;;;;;;;30.24;39.16;101151.73;128887;1084;64048;-85
2021/08/12 08:04:43;;;;;;;6.93;4.27;;;;;;;30.25;39.10;101147.16;128883;1084;64218;-84
2021/08/12 08:07:09;;;;;;;6.65;4.25;;;;;;;30.24;39.50;101151.73;128509;1084;64166;-85
2021/08/12 08:09:36;;;;;;;6.60;4.40;;;;;;;30.24;39.22;101148.17;128483;1084;62503;-85
2021/08/12 08:12:02;;;;;;;8.87;4.30;;;;;;;30.25;38.90;101147.16;128444;1082;64090;-85
2021/08/12 08:14:30;;;;;;;5.50;4.07;;;;;;;30.24;39.47;101151.73;128502;1083;64279;-85
2021/08/12 08:16:58;;;;;;;8.30;4.15;;;;;;;30.25;39.40;101144.44;128410;1084;64140;-84
2021/08/12 08:19:24;;;;;;;6.50;4.33;;;;;;;30.24;39.26;101143.56;128396;1084;64082;-84
2021/08/12 08:21:51;;;;;;;7.73;4.77;;;;;;;30.24;39.19;101154.46;128511;1084;64298;-84
2021/08/12 08:24:17;;;;;;;7.47;5.00;;;;;;;30.23;38.77;101150.05;128334;1084;64622;-84
2021/08/12 08:26:44;;;;;;;9.53;5.10;;;;;;;30.18;39.00;101144.23;128352;1084;64364;-85
2021/08/12 08:29:11;;;;;;;7.73;4.50;;;;;;;30.15;38.56;101135.53;128432;1084;64134;-84
2021/08/12 08:31:39;;;;;;;6.90;4.20;;;;;;;30.15;38.90;101144.54;128448;1084;64135;-85
2021/08/12 08:34:06;;;;;;;6.37;4.67;;;;;;;30.15;38.96;101141.82;128791;1084;64229;-83
2021/08/12 08:36:32;;;;;;;7.90;4.47;;;;;;;30.16;38.88;101132.64;128703;1083;64259;-85
2021/08/12 08:38:58;;;;;;;8.70;4.23;;;;;;;30.18;39.09;101133.34;128398;1084;64385;-85
2021/08/12 08:41:26;;;;;;;6.93;4.63;;;;;;;30.19;38.77;101139.63;128488;1082;64131;-85
2021/08/12 08:43:53;;;;;;;7.30;4.40;;;;;;;30.18;39.13;101141.52;128844;1084;64160;-85
2021/08/12 08:46:20;;;;;;;6.17;4.40;;;;;;;30.21;38.92;101145.78;128466;1084;64134;-86
2021/08/12 08:48:46;;;;;;;8.43;4.73;;;;;;;30.21;38.72;101143.06;128440;1084;64101;-85
2021/08/12 08:51:15;;;;;;;8.73;4.73;;;;;;;30.20;39.11;101139.47;128519;1084;64552;-85
2021/08/12 08:53:43;;;;;;;7.60;4.70;;;;;;;30.23;38.61;101146.45;128398;1083;64170;-85
2021/08/12 08:56:11;;;;;;;7.50;4.83;;;;;;;30.23;39.02;101144.61;128384;1084;64147;-86
2021/08/12 08:58:39;;;;;;;6.73;4.58;;;;;;;30.22;38.77;101142.89;128409;1084;64086;-86
2021/08/12 09:01:05;;;;;;;7.00;4.30;;;;;;;30.23;38.82;101141.89;128406;1084;64317;-84
2021/08/12 09:03:32;;;;;;;8.23;4.50;;;;;;;30.23;39.10;101143.73;128401;1084;64093;-84
2021/08/12 09:05:59;;;;;;;6.47;5.00;;;;;;;30.24;38.97;101140.84;128450;1084;64154;-85
2021/08/12 09:08:25;;;;;;;8.17;4.73;;;;;;;30.25;39.19;101141.72;128378;1083;64289;-84
2021/08/12 09:10:51;;;;;;;6.23;4.30;;;;;;;30.25;39.10;101144.44;128408;1084;64709;-83
2021/08/12 09:13:18;;;;;;;7.17;4.70;;;;;;;30.25;38.86;101136.27;128279;1084;64099;-84
2021/08/12 09:16:28;;;;;;;8.13;4.60;;;;;;;30.25;38.57;101134.39;128212;1084;64279;-84
2021/08/12 09:19:11;;;;;;;7.47;4.50;;;;;;;30.26;39.11;101140.67;128188;1087;64192;-85
2021/08/12 09:21:37;;;;;;;6.97;4.60;;;;;;;30.26;38.72;101132.51;128204;1087;64266;-84
2021/08/12 09:24:03;;;;;;;7.20;4.55;;;;;;;30.28;39.13;101133.22;128026;1087;64172;-83
2021/08/12 09:26:31;;;;;;;7.50;4.27;;;;;;;30.27;38.82;101131.50;128133;1086;64134;-84
2021/08/12 09:28:57;;;;;;;12.63;4.15;;;;;;;30.29;38.57;101131.33;127885;1087;64157;-86
2021/08/12 09:31:24;;;;;;;8.97;4.60;;;;;;;30.29;39.11;101137.66;127923;1087;64236;-85
2021/08/12 09:33:53;;;;;;;8.30;4.07;;;;;;;30.29;38.80;101126.77;128275;1087;64131;-85
2021/08/12 09:36:33;;;;;;;6.00;4.30;;;;;;;30.30;38.93;101133.05;128227;1085;64395;-85
2021/08/12 09:39:20;;;;;;;7.20;4.50;;;;;;;30.30;38.70;101127.59;128140;1087;64267;-85
2021/08/12 09:41:49;;;;;;;5.80;4.27;;;;;;;30.29;39.10;101126.77;128324;1085;64259;-85
2021/08/12 09:44:38;;;;;;;7.43;4.40;;;;;;;30.29;38.99;101129.48;128311;1085;64156;-84
2021/08/12 09:47:06;;;;;;;7.83;4.48;;;;;;;30.28;38.98;101130.49;128287;1087;64146;-85
2021/08/12 09:49:35;;;;;;;;;;;;;;;30.27;38.65;101126.05;128000;1087;64294;-86
2021/08/12 09:52:25;;;;;;;7.20;4.63;;;;;;;30.28;38.64;101132.38;128136;1086;64134;-84
2021/08/12 09:55:22;;;;;;;8.50;4.90;;;;;;;30.28;38.66;101132.38;127960;1087;64307;-85
2021/08/12 09:57:51;;;;;;;6.77;4.40;;;;;;;30.26;39.16;101117.05;128769;1083;64128;-84
2021/08/12 10:00:24;;;;;;;6.33;4.30;;;;;;;30.27;39.15;101126.05;128843;1084;64311;-85
2021/08/12 10:02:50;;;;;;;6.27;4.23;;;;;;;30.28;38.67;101118.76;128867;1083;64143;-86
2021/08/12 10:05:17;;;;;;;6.27;4.47;;;;;;;30.27;38.99;101107.00;128504;1082;64187;-86
2021/08/12 10:07:48;;;;;;;8.37;4.10;;;;;;;30.26;38.76;101106.16;128475;1082;64170;-84
2021/08/12 10:10:16;;;;;;;6.53;4.87;;;;;;;30.28;38.62;101110.59;128391;1083;64170;-84
2021/08/12 10:12:47;;;;;;;7.53;4.43;;;;;;;30.26;39.14;101111.59;128780;1084;64359;-84
2021/08/12 10:15:19;;;;;;;6.47;4.60;;;;;;;30.26;38.76;101111.59;128831;1084;64191;-85
2021/08/12 10:17:47;;;;;;;6.87;4.50;;;;;;;30.26;38.62;101100.70;128475;1082;64179;-86
2021/08/12 10:20:24;;;;;;;6.73;4.50;;;;;;;30.26;38.85;101103.43;129684;1082;62348;-82
2021/08/12 10:22:52;;;;;;;7.23;4.50;;;;;;;30.26;38.69;101092.54;128694;1084;64099;-84
2021/08/12 10:25:19;;;;;;;6.93;4.60;;;;;;;30.28;38.92;101099.70;128844;1082;64163;-84
2021/08/12 10:27:47;;;;;;;7.03;4.10;;;;;;;30.29;38.94;101094.08;128791;1084;64200;-84
2021/08/12 10:30:14;;;;;;;5.87;4.37;;;;;;;30.28;38.85;101086.92;128842;1082;64006;-85
2021/08/12 10:33:05;;;;;;;6.13;4.27;;;;;;;30.29;38.99;101091.36;128434;1084;64128;-86
2021/08/12 10:35:33;;;;;;;6.53;4.20;;;;;;;30.29;38.70;101091.36;128518;1084;64275;-85
2021/08/12 10:38:00;;;;;;;6.00;4.08;;;;;;;30.28;38.66;101089.65;128494;1084;64137;-87
2021/08/12 10:40:29;;;;;;;7.33;4.60;;;;;;;30.28;38.51;101086.92;128515;1083;63948;-85
2021/08/12 10:42:57;;;;;;;6.30;4.63;;;;;;;30.28;38.83;101089.65;128929;1084;64216;-85
2021/08/12 10:45:24;;;;;;;5.93;4.23;;;;;;;30.28;38.52;101092.37;128497;1083;64128;-84
2021/08/12 10:47:54;;;;;;;8.33;4.30;;;;;;;30.28;38.64;101083.36;128462;1084;64272;-85
2021/08/12 10:50:26;;;;;;;6.47;4.57;;;;;;;30.28;38.94;101075.19;128416;1084;64162;-85
2021/08/12 10:53:16;;;;;;;;;;;;;;;;;;;;;
2021/08/12 10:55:48;;;;;;;6.63;4.27;;;;;;;30.26;38.66;101076.20;128838;1084;64156;-85
2021/08/12 10:58:28;;;;;;;6.87;4.80;;;;;;;30.27;38.82;101079.77;128849;1082;64285;-86
2021/08/12 11:01:00;;;;;;;8.60;4.50;;;;;;;30.28;38.74;101077.91;128890;1084;64275;-85
2021/08/12 11:03:53;;;;;;;6.70;4.10;;;;;;;30.27;38.57;101068.88;128471;1084;64231;-85
2021/08/12 11:06:20;;;;;;;7.10;4.90;;;;;;;30.26;38.50;101070.75;128290;1084;64214;-86
2021/08/12 11:08:49;;;;;;;7.70;4.90;;;;;;;30.27;38.91;101068.88;128709;1084;64270;-85
2021/08/12 11:11:21;;;;;;;6.43;4.03;;;;;;;30.27;38.51;101068.88;128753;1084;64165;-85
2021/08/12 11:13:56;;;;;;;7.57;4.57;;;;;;;30.27;38.86;101068.88;128845;1084;64205;-85
2021/08/12 11:16:53;;;;;;;7.40;4.50;;;;;;;30.28;38.86;101059.69;128444;1084;64140;-86
2021/08/12 11:19:22;;;;;;;6.93;4.17;;;;;;;30.28;38.81;101064.30;128427;1084;64217;-85
2021/08/12 11:21:49;;;;;;;7.57;4.30;;;;;;;30.29;38.84;101063.26;128883;1084;64439;-86
2021/08/12 11:24:25;;;;;;;6.80;4.60;;;;;;;30.28;38.89;101062.42;128501;1083;64294;-86
2021/08/12 11:26:54;;;;;;;6.90;3.93;;;;;;;30.29;38.45;101063.26;128864;1082;64139;-86